createdAt,value
2023-03-05T00:01:32.451Z,33.20
2023-03-05T00:04:34.079Z,33.30
2023-03-05T00:07:35.929Z,33.30
2023-03-05T00:10:37.895Z,33.30
2023-03-05T00:13:39.863Z,33.30
2023-03-05T00:16:41.256Z,33.30
2023-03-05T00:19:44.597Z,33.30
2023-03-05T00:22:46.011Z,33.30
2023-03-05T00:25:48.220Z,33.30
2023-03-05T00:28:51.130Z,33.10
2023-03-05T00:31:52.680Z,33.20
2023-03-05T00:34:53.911Z,33.30
2023-03-05T00:37:55.339Z,33.40
2023-03-05T00:40:57.896Z,33.20
2023-03-05T00:43:59.512Z,33.30
2023-03-05T00:47:02.177Z,33.30
2023-03-05T00:50:04.318Z,33.30
2023-03-05T00:53:05.706Z,33.50
2023-03-05T00:56:07.658Z,33.30
2023-03-05T00:59:09.262Z,33.50
2023-03-05T01:02:10.838Z,33.20
2023-03-05T01:05:13.593Z,33.20
2023-03-05T01:08:16.088Z,33.40
2023-03-05T01:11:18.105Z,33.50
2023-03-05T01:14:20.372Z,33.40
2023-03-05T01:17:22.010Z,33.40
2023-03-05T01:20:23.508Z,33.60
2023-03-05T01:23:24.752Z,33.60
2023-03-05T01:26:26.798Z,33.50
2023-03-05T01:29:28.524Z,33.50
2023-03-05T01:32:30.109Z,33.40
2023-03-05T01:35:31.408Z,33.50
2023-03-05T01:38:32.863Z,33.70
2023-03-05T01:41:35.594Z,33.40
2023-03-05T01:44:37.532Z,33.50
2023-03-05T01:47:39.810Z,33.40
2023-03-05T01:50:41.263Z,33.60
2023-03-05T01:53:42.797Z,33.50
2023-03-05T01:56:45.497Z,33.60
2023-03-05T01:59:50.844Z,34.10
2023-03-05T02:02:52.939Z,33.40
2023-03-05T02:05:54.319Z,33.50
2023-03-05T02:08:56.371Z,33.50
2023-03-05T02:11:58.826Z,33.70
2023-03-05T02:15:00.374Z,33.60
2023-03-05T02:18:01.727Z,33.60
2023-03-05T02:21:04.898Z,33.80
2023-03-05T02:24:07.085Z,33.90
2023-03-05T02:27:09.161Z,33.60
2023-03-05T02:30:12.325Z,33.70
2023-03-05T02:33:15.198Z,33.70
2023-03-05T02:36:17.761Z,33.80
2023-03-05T02:39:19.127Z,33.90
2023-03-05T02:42:21.830Z,33.90
2023-03-05T02:45:23.404Z,33.80
2023-03-05T02:48:24.920Z,33.90
2023-03-05T02:51:27.200Z,33.80
2023-03-05T02:54:29.203Z,33.90
2023-03-05T02:57:31.866Z,34.00
2023-03-05T03:00:33.555Z,33.90
2023-03-05T03:03:35.225Z,33.90
2023-03-05T03:06:37.262Z,34.00
2023-03-05T03:09:38.911Z,34.00
2023-03-05T03:12:41.489Z,34.00
2023-03-05T03:15:43.380Z,34.00
2023-03-05T03:18:46.695Z,34.20
2023-03-05T03:21:49.510Z,34.00
2023-03-05T03:24:50.948Z,34.10
2023-03-05T03:27:52.358Z,34.00
2023-03-05T03:30:53.788Z,34.10
2023-03-05T03:33:55.192Z,34.20
2023-03-05T03:36:57.150Z,34.30
2023-03-05T03:39:58.556Z,34.20
2023-03-05T03:42:59.916Z,34.20
2023-03-05T03:46:03.935Z,34.20
2023-03-05T03:49:06.390Z,34.20
2023-03-05T03:52:08.551Z,34.10
2023-03-05T03:55:10.673Z,34.30
2023-03-05T03:58:12.125Z,34.20
2023-03-05T04:01:13.585Z,34.30
2023-03-05T04:04:15.160Z,34.30
2023-03-05T04:07:17.827Z,34.50
2023-03-05T04:10:19.516Z,34.40
2023-03-05T04:13:20.958Z,34.30
2023-03-05T04:16:22.812Z,34.30
2023-03-05T04:19:24.280Z,34.30
2023-03-05T04:22:26.083Z,34.30
2023-03-05T04:25:27.469Z,34.40
2023-03-05T04:28:30.557Z,34.30
2023-03-05T04:31:32.058Z,34.30
2023-03-05T04:34:34.455Z,34.10
2023-03-05T04:37:36.933Z,34.00
2023-03-05T04:40:38.494Z,34.10
2023-03-05T04:43:39.784Z,33.90
2023-03-05T04:46:41.547Z,34.10
2023-03-05T04:49:43.365Z,33.80
2023-03-05T04:52:48.532Z,33.40
2023-03-05T04:55:52.890Z,33.30
2023-03-05T04:58:54.259Z,33.30
2023-03-05T05:01:55.800Z,33.10
2023-03-05T05:04:57.179Z,33.00
2023-03-05T05:07:59.528Z,33.00
2023-03-05T05:11:03.303Z,33.00
2023-03-05T05:14:04.772Z,32.70
2023-03-05T05:17:06.452Z,32.50
2023-03-05T05:20:10.672Z,32.50
2023-03-05T05:23:13.220Z,32.10
2023-03-05T05:26:15.224Z,32.10
2023-03-05T05:29:16.627Z,31.90
2023-03-05T05:32:19.315Z,31.90
2023-03-05T05:35:20.789Z,31.80
2023-03-05T05:38:22.798Z,31.90
2023-03-05T05:41:24.609Z,31.80
2023-03-05T05:44:28.915Z,31.80
2023-03-05T05:47:30.526Z,31.60
2023-03-05T05:50:32.003Z,31.60
2023-03-05T05:53:33.925Z,31.40
2023-03-05T05:56:36.368Z,31.50
2023-03-05T05:59:38.212Z,31.70
2023-03-05T06:02:40.189Z,31.30
2023-03-05T06:05:42.508Z,31.40
2023-03-05T06:08:44.705Z,31.20
2023-03-05T06:11:46.111Z,31.20
2023-03-05T06:14:47.544Z,31.50
2023-03-05T06:17:49.166Z,31.30
2023-03-05T06:20:53.819Z,31.20
2023-03-05T06:23:57.829Z,31.30
2023-03-05T06:26:59.208Z,31.30
2023-03-05T06:30:02.597Z,31.40
2023-03-05T06:33:04.019Z,31.30
2023-03-05T06:36:07.840Z,31.20
2023-03-05T06:39:09.911Z,31.20
2023-03-05T06:42:11.424Z,31.10
2023-03-05T06:45:12.713Z,31.10
2023-03-05T06:48:14.266Z,31.20
2023-03-05T06:51:17.893Z,31.10
2023-03-05T06:54:19.831Z,31.00
2023-03-05T06:57:21.438Z,31.10
2023-03-05T07:00:23.591Z,31.00
2023-03-05T07:03:25.008Z,31.00
2023-03-05T07:06:26.994Z,30.80
2023-03-05T07:09:29.922Z,30.70
2023-03-05T07:12:31.620Z,30.90
2023-03-05T07:15:33.184Z,30.80
2023-03-05T07:18:35.109Z,30.80
2023-03-05T07:21:39.453Z,30.90
2023-03-05T07:24:41.811Z,31.50
2023-03-05T07:27:43.206Z,30.80
2023-03-05T07:30:44.653Z,30.50
2023-03-05T07:33:46.753Z,30.60
2023-03-05T07:36:50.162Z,30.50
2023-03-05T07:39:52.132Z,30.50
2023-03-05T07:42:53.766Z,30.30
2023-03-05T07:46:05.267Z,30.30
2023-03-05T07:49:07.129Z,30.30
2023-03-05T07:52:09.313Z,30.30
2023-03-05T07:55:14.139Z,30.10
2023-03-05T07:58:15.784Z,30.10
2023-03-05T08:01:17.193Z,30.10
2023-03-05T08:04:18.619Z,30.20
2023-03-05T08:07:22.481Z,30.10
2023-03-05T08:10:27.503Z,30.10
2023-03-05T08:13:28.920Z,30.00
2023-03-05T08:16:30.879Z,30.10
2023-03-05T08:19:32.882Z,30.00
2023-03-05T08:22:34.426Z,30.00
2023-03-05T08:25:37.548Z,30.00
2023-03-05T08:28:38.904Z,30.00
2023-03-05T08:31:44.485Z,30.00
2023-03-05T08:34:46.009Z,29.90
2023-03-05T08:37:48.038Z,29.90
2023-03-05T08:40:50.002Z,29.90
2023-03-05T08:43:51.496Z,30.00
2023-03-05T08:46:53.002Z,29.90
2023-03-05T08:49:56.492Z,29.90
2023-03-05T08:53:01.438Z,30.00
2023-03-05T08:56:03.664Z,29.90
2023-03-05T08:59:05.612Z,29.90
2023-03-05T09:02:07.109Z,29.80
2023-03-05T09:05:08.744Z,29.80
2023-03-05T09:08:10.290Z,29.80
2023-03-05T09:11:13.129Z,29.90
2023-03-05T09:14:14.626Z,29.80
2023-03-05T09:17:15.889Z,29.90
2023-03-05T09:20:17.676Z,30.00
2023-03-05T09:23:19.515Z,29.80
2023-03-05T09:26:24.093Z,29.80
2023-03-05T09:29:30.099Z,29.90
2023-03-05T09:32:32.242Z,29.80
2023-03-05T09:35:35.452Z,29.70
2023-03-05T09:38:38.399Z,29.60
2023-03-05T09:42:09.916Z,29.60
2023-03-05T09:45:20.807Z,29.60
2023-03-05T09:48:26.944Z,29.60
2023-03-05T09:51:34.608Z,29.40
2023-03-05T09:54:39.453Z,29.40
2023-03-05T09:57:49.435Z,29.50
2023-03-05T10:00:55.144Z,29.40
2023-03-05T10:04:00.224Z,29.40
2023-03-05T10:07:08.928Z,29.30
2023-03-05T10:10:13.550Z,29.30
2023-03-05T10:13:23.888Z,29.30
2023-03-05T10:16:43.692Z,29.20
2023-03-05T10:20:08.799Z,29.10
2023-03-05T10:23:24.054Z,29.20
2023-03-05T10:26:38.078Z,29.20
2023-03-05T10:29:54.846Z,29.10
2023-03-05T10:33:03.121Z,29.20
2023-03-05T10:36:19.540Z,29.00
2023-03-05T10:39:41.793Z,29.10
2023-03-05T10:42:51.216Z,29.00
2023-03-05T10:45:56.532Z,29.00
2023-03-05T10:49:04.896Z,29.00
2023-03-05T10:52:11.341Z,28.80
2023-03-05T10:55:15.391Z,29.00
2023-03-05T10:58:17.503Z,28.90
2023-03-05T11:01:22.421Z,28.90
2023-03-05T11:04:27.670Z,28.80
2023-03-05T11:07:33.248Z,28.80
2023-03-05T11:10:34.647Z,28.70
2023-03-05T11:13:38.329Z,28.80
2023-03-05T11:16:50.028Z,28.70
2023-03-05T11:19:51.687Z,28.70
2023-03-05T11:23:04.896Z,28.70
2023-03-05T11:26:19.296Z,28.60
2023-03-05T11:29:26.529Z,28.50
2023-03-05T11:32:30.601Z,28.70
2023-03-05T11:35:34.288Z,28.60
2023-03-05T11:38:45.900Z,28.70
2023-03-05T11:41:48.540Z,28.40
2023-03-05T11:44:52.646Z,28.50
2023-03-05T11:48:04.298Z,28.50
2023-03-05T11:51:08.048Z,28.60
2023-03-05T11:54:17.524Z,28.70
2023-03-05T11:57:23.469Z,28.60
2023-03-05T12:00:29.200Z,28.60
2023-03-05T12:03:34.183Z,28.60
2023-03-05T12:06:40.814Z,28.50
2023-03-05T12:09:48.795Z,28.60
2023-03-05T12:12:57.070Z,28.60
2023-03-05T12:16:06.358Z,28.50
2023-03-05T12:19:22.872Z,28.50
2023-03-05T12:22:31.278Z,28.40
2023-03-05T12:25:34.132Z,28.50
2023-03-05T12:28:55.186Z,28.40
2023-03-05T12:31:57.481Z,28.30
2023-03-05T12:35:00.798Z,28.40
2023-03-05T12:38:26.503Z,28.30
2023-03-05T12:41:35.726Z,28.30
2023-03-05T12:44:39.155Z,28.30
2023-03-05T12:47:41.986Z,28.20
2023-03-05T12:50:57.221Z,28.20
2023-03-05T12:54:21.484Z,28.30
2023-03-05T12:57:25.637Z,28.20
2023-03-05T13:00:33.093Z,28.20
2023-03-05T13:03:43.019Z,28.30
2023-03-05T13:06:45.490Z,28.20
2023-03-05T13:09:55.617Z,28.20
2023-03-05T13:12:57.912Z,28.30
2023-03-05T13:16:00.785Z,28.30
2023-03-05T13:19:03.582Z,28.20
2023-03-05T13:22:11.874Z,28.20
2023-03-05T13:25:15.782Z,28.30
2023-03-05T13:28:17.193Z,28.10
2023-03-05T13:31:24.453Z,28.20
2023-03-05T13:34:37.434Z,28.20
2023-03-05T13:37:43.979Z,28.20
2023-03-05T13:41:01.091Z,28.20
2023-03-05T13:44:02.951Z,28.20
2023-03-05T13:47:12.273Z,28.30
2023-03-05T13:50:26.569Z,28.20
2023-03-05T13:53:30.343Z,28.20
2023-03-05T13:56:31.726Z,28.20
2023-03-05T13:59:35.006Z,28.30
2023-03-05T14:02:43.214Z,28.20
2023-03-05T14:05:44.832Z,28.20
2023-03-05T14:08:50.432Z,28.20
2023-03-05T14:11:55.357Z,28.20
2023-03-05T14:14:58.705Z,28.20
2023-03-05T14:18:17.014Z,28.20
2023-03-05T14:21:18.533Z,28.20
2023-03-05T14:24:21.927Z,28.20
2023-03-05T14:27:26.228Z,28.20
2023-03-05T14:30:35.230Z,28.20
2023-03-05T14:33:37.570Z,28.30
2023-03-05T14:36:39.864Z,28.30
2023-03-05T14:39:49.005Z,28.20
2023-03-05T14:42:51.868Z,28.30
2023-03-05T14:45:53.299Z,28.30
2023-03-05T14:48:54.717Z,28.30
2023-03-05T14:51:59.592Z,28.20
2023-03-05T14:55:01.811Z,28.40
2023-03-05T14:58:09.939Z,28.20
2023-03-05T15:01:12.283Z,28.20
2023-03-05T15:04:19.297Z,28.30
2023-03-05T15:07:24.643Z,28.30
2023-03-05T15:10:26.602Z,28.20
2023-03-05T15:13:33.770Z,28.30
2023-03-05T15:16:35.416Z,28.10
2023-03-05T15:19:36.836Z,28.20
2023-03-05T15:22:38.469Z,28.10
2023-03-05T15:25:42.232Z,28.30
2023-03-05T15:28:43.664Z,28.10
2023-03-05T15:31:46.580Z,28.20
2023-03-05T15:34:48.314Z,28.30
2023-03-05T15:37:52.340Z,28.30
2023-03-05T15:40:54.676Z,28.20
2023-03-05T15:43:56.088Z,28.30
2023-03-05T15:46:57.559Z,28.20
2023-03-05T15:49:58.780Z,28.30
2023-03-05T15:53:00.270Z,28.20
2023-03-05T15:56:02.100Z,28.30
2023-03-05T15:59:04.333Z,28.30
2023-03-05T16:02:06.157Z,28.40
2023-03-05T16:05:08.704Z,28.40
2023-03-05T16:08:10.245Z,28.30
2023-03-05T16:11:12.439Z,28.40
2023-03-05T16:14:17.709Z,28.40
2023-03-05T16:17:21.771Z,28.30
2023-03-05T16:20:23.690Z,28.30
2023-03-05T16:23:25.264Z,28.20
2023-03-05T16:26:27.269Z,28.30
2023-03-05T16:29:31.021Z,28.20
2023-03-05T16:32:32.563Z,28.30
2023-03-05T16:35:34.233Z,28.20
2023-03-05T16:38:40.462Z,28.30
2023-03-05T16:41:42.903Z,28.30
2023-03-05T16:44:44.552Z,28.30
2023-03-05T16:47:48.421Z,28.20
2023-03-05T16:50:49.854Z,28.20
2023-03-05T16:53:51.226Z,28.30
2023-03-05T16:56:53.468Z,28.30
2023-03-05T16:59:55.308Z,28.40
2023-03-05T17:02:56.717Z,28.30
2023-03-05T17:05:58.745Z,28.40
2023-03-05T17:09:00.683Z,28.70
2023-03-05T17:12:03.006Z,28.30
2023-03-05T17:15:05.362Z,28.20
2023-03-05T17:18:07.237Z,28.30
2023-03-05T17:21:09.154Z,28.20
2023-03-05T17:24:11.218Z,28.30
2023-03-05T17:27:18.020Z,28.20
2023-03-05T17:30:19.983Z,28.30
2023-03-05T17:33:21.455Z,28.30
2023-03-05T17:36:23.251Z,28.20
2023-03-05T17:39:24.709Z,28.20
2023-03-05T17:42:26.582Z,28.30
2023-03-05T17:45:27.912Z,28.40
2023-03-05T17:48:31.438Z,28.30
2023-03-05T17:51:32.848Z,28.40
2023-03-05T17:54:34.207Z,28.50
2023-03-05T17:57:36.733Z,28.40
2023-03-05T18:00:38.436Z,28.40
2023-03-05T18:03:40.009Z,28.50
2023-03-05T18:06:41.589Z,28.40
2023-03-05T18:09:42.983Z,28.50
2023-03-05T18:12:45.505Z,28.50
2023-03-05T18:15:46.933Z,28.50
2023-03-05T18:18:51.213Z,28.50
2023-03-05T18:21:52.610Z,28.40
2023-03-05T18:24:54.270Z,28.50
2023-03-05T18:27:56.547Z,28.60
2023-03-05T18:30:58.271Z,28.40
2023-03-05T18:33:59.653Z,28.40
2023-03-05T18:37:01.286Z,28.50
2023-03-05T18:40:08.566Z,28.60
2023-03-05T18:43:11.912Z,28.60
2023-03-05T18:46:16.245Z,28.60
2023-03-05T18:49:18.472Z,28.70
2023-03-05T18:52:20.110Z,28.60
2023-03-05T18:55:24.288Z,28.70
2023-03-05T18:58:26.331Z,29.10
2023-03-05T19:01:27.778Z,28.70
2023-03-05T19:04:29.116Z,28.70
2023-03-05T19:07:33.065Z,28.80
2023-03-05T19:10:34.975Z,28.60
2023-03-05T19:13:38.991Z,28.80
2023-03-05T19:16:43.268Z,28.70
2023-03-05T19:19:50.250Z,28.60
2023-03-05T19:22:51.672Z,28.60
2023-03-05T19:25:53.095Z,28.60
2023-03-05T19:28:54.929Z,28.60
2023-03-05T19:31:56.333Z,28.60
2023-03-05T19:34:58.242Z,28.70
2023-03-05T19:38:00.152Z,28.60
2023-03-05T19:41:01.613Z,28.60
2023-03-05T19:44:04.478Z,28.60
2023-03-05T19:47:06.890Z,28.60
2023-03-05T19:50:09.394Z,28.50
2023-03-05T19:53:12.536Z,28.60
2023-03-05T19:56:15.597Z,28.70
2023-03-05T19:59:20.423Z,28.60
2023-03-05T20:02:21.999Z,28.70
2023-03-05T20:05:26.240Z,28.70
2023-03-05T20:08:27.844Z,28.80
2023-03-05T20:11:29.316Z,28.70
2023-03-05T20:14:31.580Z,28.80
2023-03-05T20:17:32.986Z,28.90
2023-03-05T20:20:34.442Z,29.00
2023-03-05T20:23:35.966Z,28.90
2023-03-05T20:26:38.554Z,29.00
2023-03-05T20:29:40.841Z,29.10
2023-03-05T20:32:43.686Z,29.00
2023-03-05T20:35:45.169Z,29.10
2023-03-05T20:38:46.772Z,29.10
2023-03-05T20:41:48.607Z,29.20
2023-03-05T20:44:50.610Z,29.20
2023-03-05T20:47:52.081Z,29.30
2023-03-05T20:50:54.091Z,29.40
2023-03-05T20:53:57.708Z,29.60
2023-03-05T20:56:59.104Z,29.50
2023-03-05T21:00:02.729Z,29.70
2023-03-05T21:03:04.221Z,30.20
2023-03-05T21:06:05.771Z,29.80
2023-03-05T21:09:07.537Z,29.90
2023-03-05T21:12:09.132Z,30.00
2023-03-05T21:15:14.370Z,30.00
2023-03-05T21:18:15.799Z,30.20
2023-03-05T21:21:17.581Z,30.30
2023-03-05T21:24:24.582Z,30.50
2023-03-05T21:27:27.422Z,30.70
2023-03-05T21:30:33.607Z,30.90
2023-03-05T21:33:35.540Z,31.10
2023-03-05T21:36:39.360Z,31.20
2023-03-05T21:39:40.872Z,30.70
2023-03-05T21:42:42.901Z,31.60
2023-03-05T21:45:46.245Z,31.80
2023-03-05T21:48:50.665Z,31.70
2023-03-05T21:52:05.039Z,31.70
2023-03-05T21:55:06.927Z,32.10
2023-03-05T21:58:08.433Z,32.10
2023-03-05T22:01:10.877Z,32.30
2023-03-05T22:04:12.323Z,32.40
2023-03-05T22:07:16.691Z,32.30
2023-03-05T22:10:20.253Z,32.40
2023-03-05T22:13:21.913Z,32.40
2023-03-05T22:16:25.970Z,32.60
2023-03-05T22:19:31.619Z,32.60
2023-03-05T22:22:35.544Z,32.70
2023-03-05T22:25:38.168Z,32.80
2023-03-05T22:28:39.567Z,33.00
2023-03-05T22:31:41.696Z,33.00
2023-03-05T22:34:43.087Z,32.80
2023-03-05T22:37:44.462Z,33.00
2023-03-05T22:40:50.368Z,33.10
2023-03-05T22:43:54.576Z,32.90
2023-03-05T22:46:59.418Z,33.10
2023-03-05T22:50:00.942Z,33.10
2023-03-05T22:53:02.543Z,33.00
2023-03-05T22:56:07.102Z,33.30
2023-03-05T22:59:08.494Z,33.10
2023-03-05T23:02:10.726Z,33.20
2023-03-05T23:05:12.408Z,33.20
2023-03-05T23:08:18.288Z,33.00
2023-03-05T23:11:19.861Z,33.20
2023-03-05T23:14:21.313Z,33.10
2023-03-05T23:17:23.290Z,33.20
2023-03-05T23:20:26.892Z,33.00
2023-03-05T23:23:28.428Z,33.00
2023-03-05T23:26:29.672Z,33.30
2023-03-05T23:29:36.292Z,33.30
2023-03-05T23:32:40.471Z,33.20
2023-03-05T23:35:43.305Z,33.10
2023-03-05T23:38:56.643Z,33.30
2023-03-05T23:41:58.353Z,33.00
2023-03-05T23:45:03.201Z,33.10
2023-03-05T23:48:05.796Z,32.90
2023-03-05T23:51:08.883Z,33.10
2023-03-05T23:54:10.290Z,33.20
2023-03-05T23:57:11.707Z,33.00
